Smithfield - 24 Hour Table
Date & TimeSolar
Radiation
(W/m²)
Wind
Speed
(mph)
Wind
Direction
(degrees)
Air
Temperature
(°F)
Relative
Humidity
(%)
Precipitation
(inches)
2019/04/18 13:00 901 4.0 243 56.7 35 0.00
2019/04/18 12:00 873 4.6 232 54.7 40 0.00
2019/04/18 11:00 791 4.8 207 52.2 49 0.00
2019/04/18 10:00 658 3.9 213 48.7 57 0.00
2019/04/18 09:00 486 3.1 202 44.1 71 0.00
2019/04/18 08:00 292 2.8 234 41.5 80 0.00
2019/04/18 07:00 65 3.7 67 37.4 78 0.00
2019/04/18 06:00 3 2.3 85 37.9 86 0.00
2019/04/18 05:00 0 3.4 54 39.0 73 0.00
2019/04/18 04:00 0 3.9 55 40.7 76 0.00
2019/04/18 03:00 0 5.0 58 41.2 71 0.00
2019/04/18 02:00 0 4.5 59 42.6 70 0.00
2019/04/18 01:00 0 4.7 76 43.2 72 0.00
2019/04/18 00:00 0 3.9 69 44.9 72 0.00
2019/04/17 23:00 0 4.0 37 47.1 65 0.00
2019/04/17 22:00 0 4.4 43 47.3 67 0.00
2019/04/17 21:00 0 4.7 33 47.0 65 0.00
2019/04/17 20:00 1 3.9 47 48.0 66 0.00
2019/04/17 19:00 32 1.7 99 50.7 59 0.00
2019/04/17 18:00 82 4.2 247 51.1 54 0.00
2019/04/17 17:00 114 5.1 237 51.0 52 0.00
2019/04/17 16:00 94 6.2 228 50.0 54 0.00
2019/04/17 15:00 297 5.1 286 51.7 54 0.00
2019/04/17 14:00 389 3.9 250 51.0 50 0.00